KDWH/DWH METAR and TAF weather

Enter ICAO airport designator
Station Type Date Time Source
KDWH METAR 2019/06/26 22:10 UTC NOAA

KDWH 262210Z 05005KT 10SM VCTS BKN029 BKN039 BKN065 28/23 A3010 RMK AO2 LTG DSNT SW TSE04 T02780228


Station Type Date Time Source
KDWH Decoded METAR 2019/06/26 22:10 UTC NOAA

HOUSTON HOOKS MEMORIAL, TX, United States (KDWH) 30-04N 95-33W 46M
Jun 26, 2019 - 06:10 PM EDT / 2019.06.26 2210 UTC
Wind: from the NE (050 degrees) at 6 MPH (5 KT):0
Visibility: 10 mile(s):0
Sky conditions: mostly cloudy
Weather: thunder in the vicinity; Lightning observed
Temperature: 82.0 F (27.8 C)
Dew Point: 73.0 F (22.8 C)
Relative Humidity: 74%
Pressure (altimeter): 30.1 in. Hg (1019 hPa)
ob: KDWH 262210Z 05005KT 10SM VCTS BKN029 BKN039 BKN065 28/23 A3010 RMK AO2 LTG DSNT SW TSE04 T02780228
cycle: 22

Station Type Date Time Source
KDWH TAF 2017/02/07 15:09 UTC NOAA

TAF
AMD KDWH 071507Z 0715/0812 23010KT P6SM BKN015
TEMPO 0715/0719 SCT015
FM071900 25010KT P6SM SCT025
FM080100 22005KT P6SM SCT250
TEMPO 0807/0809 3SM BR BKN013
FM080900 VRB03KT 2SM BR OVC008

Example: see airport list